sensor_id;sensor_type;location;lat;lon;timestamp;temperature;humidity
15288;DHT22;7745;48.708;9.026;2023-12-20T00:01:41;5.70;99.90
15288;DHT22;7745;48.708;9.026;2023-12-20T00:04:08;5.70;99.90
15288;DHT22;7745;48.708;9.026;2023-12-20T00:06:35;5.70;99.90
15288;DHT22;7745;48.708;9.026;2023-12-20T00:09:03;5.70;99.90
15288;DHT22;7745;48.708;9.026;2023-12-20T00:11:30;5.80;99.90
15288;DHT22;7745;48.708;9.026;2023-12-20T00:13:57;5.70;99.90
15288;DHT22;7745;48.708;9.026;2023-12-20T00:16:23;5.70;99.90
15288;DHT22;7745;48.708;9.026;2023-12-20T00:18:50;5.70;99.90
15288;DHT22;7745;48.708;9.026;2023-12-20T00:21:17;6.20;99.90
15288;DHT22;7745;48.708;9.026;2023-12-20T00:23:44;6.10;99.90
15288;DHT22;7745;48.708;9.026;2023-12-20T00:26:12;5.70;99.90
15288;DHT22;7745;48.708;9.026;2023-12-20T00:28:39;5.70;99.90
15288;DHT22;7745;48.708;9.026;2023-12-20T00:31:06;5.70;99.90
15288;DHT22;7745;48.708;9.026;2023-12-20T00:33:32;5.70;99.90
15288;DHT22;7745;48.708;9.026;2023-12-20T00:35:59;5.80;99.90
15288;DHT22;7745;48.708;9.026;2023-12-20T00:38:26;5.70;99.90
15288;DHT22;7745;48.708;9.026;2023-12-20T00:40:53;5.70;99.90
15288;DHT22;7745;48.708;9.026;2023-12-20T00:43:21;5.70;99.90
15288;DHT22;7745;48.708;9.026;2023-12-20T00:45:47;5.70;99.90
15288;DHT22;7745;48.708;9.026;2023-12-20T00:48:14;5.70;99.90
15288;DHT22;7745;48.708;9.026;2023-12-20T00:50:41;5.60;99.90
15288;DHT22;7745;48.708;9.026;2023-12-20T00:53:08;5.60;99.90
15288;DHT22;7745;48.708;9.026;2023-12-20T00:55:35;5.60;99.90
15288;DHT22;7745;48.708;9.026;2023-12-20T00:58:01;5.60;99.90
15288;DHT22;7745;48.708;9.026;2023-12-20T01:00:29;5.60;99.90
15288;DHT22;7745;48.708;9.026;2023-12-20T01:02:56;5.60;99.90
15288;DHT22;7745;48.708;9.026;2023-12-20T01:05:23;5.60;99.90
15288;DHT22;7745;48.708;9.026;2023-12-20T01:07:50;5.50;99.90
15288;DHT22;7745;48.708;9.026;2023-12-20T01:10:17;5.50;99.90
15288;DHT22;7745;48.708;9.026;2023-12-20T01:12:44;5.50;99.90
15288;DHT22;7745;48.708;9.026;2023-12-20T01:15:11;5.50;99.90
15288;DHT22;7745;48.708;9.026;2023-12-20T01:17:39;5.50;99.90
15288;DHT22;7745;48.708;9.026;2023-12-20T01:20:07;5.50;99.90
15288;DHT22;7745;48.708;9.026;2023-12-20T01:22:34;5.50;99.90
15288;DHT22;7745;48.708;9.026;2023-12-20T01:25:01;5.60;99.90
15288;DHT22;7745;48.708;9.026;2023-12-20T01:27:29;5.50;99.90
15288;DHT22;7745;48.708;9.026;2023-12-20T01:29:56;5.40;99.90
15288;DHT22;7745;48.708;9.026;2023-12-20T01:32:23;5.40;99.90
15288;DHT22;7745;48.708;9.026;2023-12-20T01:34:51;5.40;99.90
15288;DHT22;7745;48.708;9.026;2023-12-20T01:37:18;5.40;99.90
15288;DHT22;7745;48.708;9.026;2023-12-20T01:39:45;5.40;99.90
15288;DHT22;7745;48.708;9.026;2023-12-20T01:42:11;5.70;99.90
15288;DHT22;7745;48.708;9.026;2023-12-20T01:44:38;5.40;99.90
15288;DHT22;7745;48.708;9.026;2023-12-20T01:47:05;5.40;99.90
15288;DHT22;7745;48.708;9.026;2023-12-20T01:49:32;5.40;99.90
15288;DHT22;7745;48.708;9.026;2023-12-20T01:52:01;5.40;99.90
15288;DHT22;7745;48.708;9.026;2023-12-20T01:54:28;5.70;99.90
15288;DHT22;7745;48.708;9.026;2023-12-20T01:56:55;5.40;99.90
15288;DHT22;7745;48.708;9.026;2023-12-20T01:59:22;5.40;99.90
15288;DHT22;7745;48.708;9.026;2023-12-20T02:01:49;5.40;99.90
15288;DHT22;7745;48.708;9.026;2023-12-20T02:04:16;5.40;99.90
15288;DHT22;7745;48.708;9.026;2023-12-20T02:06:43;5.40;99.90
15288;DHT22;7745;48.708;9.026;2023-12-20T02:09:13;5.40;99.90
15288;DHT22;7745;48.708;9.026;2023-12-20T02:11:41;5.40;99.90
15288;DHT22;7745;48.708;9.026;2023-12-20T02:14:08;5.40;99.90
15288;DHT22;7745;48.708;9.026;2023-12-20T02:16:36;5.40;99.90
15288;DHT22;7745;48.708;9.026;2023-12-20T02:19:04;5.40;99.90
15288;DHT22;7745;48.708;9.026;2023-12-20T02:21:36;5.40;99.90
15288;DHT22;7745;48.708;9.026;2023-12-20T02:24:02;5.40;99.90
15288;DHT22;7745;48.708;9.026;2023-12-20T02:26:29;5.40;99.90
15288;DHT22;7745;48.708;9.026;2023-12-20T02:28:57;5.40;99.90
15288;DHT22;7745;48.708;9.026;2023-12-20T02:31:25;5.40;99.90
15288;DHT22;7745;48.708;9.026;2023-12-20T02:33:51;5.50;99.90
15288;DHT22;7745;48.708;9.026;2023-12-20T02:36:18;5.40;99.90
15288;DHT22;7745;48.708;9.026;2023-12-20T02:38:46;5.40;99.90
15288;DHT22;7745;48.708;9.026;2023-12-20T02:41:13;5.40;99.90
15288;DHT22;7745;48.708;9.026;2023-12-20T02:43:42;5.40;99.90
15288;DHT22;7745;48.708;9.026;2023-12-20T02:46:09;5.40;99.90
15288;DHT22;7745;48.708;9.026;2023-12-20T02:48:36;5.40;99.90
15288;DHT22;7745;48.708;9.026;2023-12-20T02:51:03;5.40;99.90
15288;DHT22;7745;48.708;9.026;2023-12-20T02:53:30;5.40;99.90
15288;DHT22;7745;48.708;9.026;2023-12-20T02:55:58;5.40;99.90
15288;DHT22;7745;48.708;9.026;2023-12-20T02:58:25;5.40;99.90
15288;DHT22;7745;48.708;9.026;2023-12-20T03:00:52;5.40;99.90
15288;DHT22;7745;48.708;9.026;2023-12-20T03:03:18;5.40;99.90
15288;DHT22;7745;48.708;9.026;2023-12-20T03:05:45;5.40;99.90
15288;DHT22;7745;48.708;9.026;2023-12-20T03:08:12;5.40;99.90
15288;DHT22;7745;48.708;9.026;2023-12-20T03:10:39;5.40;99.90
15288;DHT22;7745;48.708;9.026;2023-12-20T03:13:07;5.40;99.90
15288;DHT22;7745;48.708;9.026;2023-12-20T03:15:34;5.40;99.90
15288;DHT22;7745;48.708;9.026;2023-12-20T03:18:01;5.40;99.90
15288;DHT22;7745;48.708;9.026;2023-12-20T03:20:28;5.30;99.90
15288;DHT22;7745;48.708;9.026;2023-12-20T03:22:57;5.30;99.90
15288;DHT22;7745;48.708;9.026;2023-12-20T03:25:24;5.30;99.90
15288;DHT22;7745;48.708;9.026;2023-12-20T03:27:50;5.30;99.90
15288;DHT22;7745;48.708;9.026;2023-12-20T03:30:19;5.30;99.90
15288;DHT22;7745;48.708;9.026;2023-12-20T03:32:47;5.30;99.90
15288;DHT22;7745;48.708;9.026;2023-12-20T03:35:14;5.30;99.90
15288;DHT22;7745;48.708;9.026;2023-12-20T03:37:41;5.30;99.90
15288;DHT22;7745;48.708;9.026;2023-12-20T03:40:08;5.30;99.90
15288;DHT22;7745;48.708;9.026;2023-12-20T03:42:35;5.30;99.90
15288;DHT22;7745;48.708;9.026;2023-12-20T03:45:02;5.30;99.90
15288;DHT22;7745;48.708;9.026;2023-12-20T03:47:30;5.30;99.90
15288;DHT22;7745;48.708;9.026;2023-12-20T03:49:57;5.30;99.90
15288;DHT22;7745;48.708;9.026;2023-12-20T03:52:24;5.20;99.90
15288;DHT22;7745;48.708;9.026;2023-12-20T03:54:50;5.20;99.90
15288;DHT22;7745;48.708;9.026;2023-12-20T03:57:17;5.20;99.90
15288;DHT22;7745;48.708;9.026;2023-12-20T03:59:44;5.20;99.90
15288;DHT22;7745;48.708;9.026;2023-12-20T04:02:12;5.20;99.90
15288;DHT22;7745;48.708;9.026;2023-12-20T04:04:40;5.10;99.90
15288;DHT22;7745;48.708;9.026;2023-12-20T04:07:07;5.20;99.90
15288;DHT22;7745;48.708;9.026;2023-12-20T04:09:34;5.20;99.90
15288;DHT22;7745;48.708;9.026;2023-12-20T04:12:01;5.10;99.90
15288;DHT22;7745;48.708;9.026;2023-12-20T04:14:28;5.10;99.90
15288;DHT22;7745;48.708;9.026;2023-12-20T04:16:54;5.10;99.90
15288;DHT22;7745;48.708;9.026;2023-12-20T04:19:21;5.10;99.90
15288;DHT22;7745;48.708;9.026;2023-12-20T04:21:49;5.10;99.90
15288;DHT22;7745;48.708;9.026;2023-12-20T04:24:16;5.10;99.90
15288;DHT22;7745;48.708;9.026;2023-12-20T04:26:43;5.10;99.90
15288;DHT22;7745;48.708;9.026;2023-12-20T04:29:09;5.10;99.90
15288;DHT22;7745;48.708;9.026;2023-12-20T04:31:36;5.10;99.90
15288;DHT22;7745;48.708;9.026;2023-12-20T04:34:03;5.10;99.90
15288;DHT22;7745;48.708;9.026;2023-12-20T04:36:30;5.00;99.90
15288;DHT22;7745;48.708;9.026;2023-12-20T04:38:58;5.00;99.90
15288;DHT22;7745;48.708;9.026;2023-12-20T04:41:25;5.00;99.90
15288;DHT22;7745;48.708;9.026;2023-12-20T04:43:53;5.00;99.90
15288;DHT22;7745;48.708;9.026;2023-12-20T04:46:20;5.00;99.90
15288;DHT22;7745;48.708;9.026;2023-12-20T04:48:46;5.00;99.90
15288;DHT22;7745;48.708;9.026;2023-12-20T04:51:13;5.00;99.90
15288;DHT22;7745;48.708;9.026;2023-12-20T04:53:40;5.00;99.90
15288;DHT22;7745;48.708;9.026;2023-12-20T04:56:08;5.00;99.90
15288;DHT22;7745;48.708;9.026;2023-12-20T04:58:35;5.00;99.90
15288;DHT22;7745;48.708;9.026;2023-12-20T05:01:02;5.00;99.90
15288;DHT22;7745;48.708;9.026;2023-12-20T05:03:29;5.00;99.90
15288;DHT22;7745;48.708;9.026;2023-12-20T05:05:56;5.40;99.90
15288;DHT22;7745;48.708;9.026;2023-12-20T05:08:23;5.00;99.90
15288;DHT22;7745;48.708;9.026;2023-12-20T05:10:50;5.00;99.90
15288;DHT22;7745;48.708;9.026;2023-12-20T05:13:18;5.00;99.90
15288;DHT22;7745;48.708;9.026;2023-12-20T05:15:45;5.00;99.90
15288;DHT22;7745;48.708;9.026;2023-12-20T05:18:13;5.00;99.90
15288;DHT22;7745;48.708;9.026;2023-12-20T05:20:40;5.00;99.90
15288;DHT22;7745;48.708;9.026;2023-12-20T05:23:06;5.30;99.90
15288;DHT22;7745;48.708;9.026;2023-12-20T05:25:33;5.00;99.90
15288;DHT22;7745;48.708;9.026;2023-12-20T05:28:00;5.00;99.90
15288;DHT22;7745;48.708;9.026;2023-12-20T05:30:28;5.00;99.90
15288;DHT22;7745;48.708;9.026;2023-12-20T05:32:55;5.00;99.90
15288;DHT22;7745;48.708;9.026;2023-12-20T05:35:22;5.00;99.90
15288;DHT22;7745;48.708;9.026;2023-12-20T05:37:49;5.00;99.90
15288;DHT22;7745;48.708;9.026;2023-12-20T05:40:15;5.00;99.90
15288;DHT22;7745;48.708;9.026;2023-12-20T05:42:42;5.00;99.90
15288;DHT22;7745;48.708;9.026;2023-12-20T05:45:09;5.00;99.90
15288;DHT22;7745;48.708;9.026;2023-12-20T05:47:38;5.00;99.90
15288;DHT22;7745;48.708;9.026;2023-12-20T05:50:05;5.00;99.90
15288;DHT22;7745;48.708;9.026;2023-12-20T05:52:32;5.00;99.90
15288;DHT22;7745;48.708;9.026;2023-12-20T05:54:59;5.00;99.90
15288;DHT22;7745;48.708;9.026;2023-12-20T05:57:26;4.90;99.90
15288;DHT22;7745;48.708;9.026;2023-12-20T05:59:53;4.90;99.90
15288;DHT22;7745;48.708;9.026;2023-12-20T06:02:20;4.90;99.90
15288;DHT22;7745;48.708;9.026;2023-12-20T06:04:48;4.90;99.90
15288;DHT22;7745;48.708;9.026;2023-12-20T06:07:16;4.90;99.90
15288;DHT22;7745;48.708;9.026;2023-12-20T06:09:43;4.90;99.90
15288;DHT22;7745;48.708;9.026;2023-12-20T06:12:10;4.90;99.90
15288;DHT22;7745;48.708;9.026;2023-12-20T06:14:37;4.90;99.90
15288;DHT22;7745;48.708;9.026;2023-12-20T06:17:04;4.90;99.90
15288;DHT22;7745;48.708;9.026;2023-12-20T06:19:30;4.90;99.90
15288;DHT22;7745;48.708;9.026;2023-12-20T06:21:59;4.90;99.90
15288;DHT22;7745;48.708;9.026;2023-12-20T06:24:25;4.90;99.90
15288;DHT22;7745;48.708;9.026;2023-12-20T06:26:53;5.00;99.90
15288;DHT22;7745;48.708;9.026;2023-12-20T06:29:20;5.00;99.90
15288;DHT22;7745;48.708;9.026;2023-12-20T06:31:47;5.00;99.90
15288;DHT22;7745;48.708;9.026;2023-12-20T06:34:14;5.00;99.90
15288;DHT22;7745;48.708;9.026;2023-12-20T06:36:41;5.00;99.90
15288;DHT22;7745;48.708;9.026;2023-12-20T06:39:09;5.00;99.90
15288;DHT22;7745;48.708;9.026;2023-12-20T06:41:38;5.00;99.90
15288;DHT22;7745;48.708;9.026;2023-12-20T06:44:05;5.00;99.90
15288;DHT22;7745;48.708;9.026;2023-12-20T06:46:32;5.60;99.90
15288;DHT22;7745;48.708;9.026;2023-12-20T06:48:57;5.10;99.90
15288;DHT22;7745;48.708;9.026;2023-12-20T06:51:24;5.10;99.90
15288;DHT22;7745;48.708;9.026;2023-12-20T06:53:51;5.10;99.90
15288;DHT22;7745;48.708;9.026;2023-12-20T06:56:19;5.10;99.90
15288;DHT22;7745;48.708;9.026;2023-12-20T06:58:46;5.10;99.90
15288;DHT22;7745;48.708;9.026;2023-12-20T07:01:13;5.10;99.90
15288;DHT22;7745;48.708;9.026;2023-12-20T07:03:40;5.10;99.90
15288;DHT22;7745;48.708;9.026;2023-12-20T07:06:07;5.10;99.90
15288;DHT22;7745;48.708;9.026;2023-12-20T07:08:34;5.10;99.90
15288;DHT22;7745;48.708;9.026;2023-12-20T07:11:01;5.10;99.90
15288;DHT22;7745;48.708;9.026;2023-12-20T07:13:30;5.10;99.90
15288;DHT22;7745;48.708;9.026;2023-12-20T07:15:56;5.10;99.90
15288;DHT22;7745;48.708;9.026;2023-12-20T07:18:23;5.10;99.90
15288;DHT22;7745;48.708;9.026;2023-12-20T07:20:50;5.30;99.90
15288;DHT22;7745;48.708;9.026;2023-12-20T07:23:17;5.20;99.90
15288;DHT22;7745;48.708;9.026;2023-12-20T07:25:45;5.20;99.90
15288;DHT22;7745;48.708;9.026;2023-12-20T07:28:12;5.20;99.90
15288;DHT22;7745;48.708;9.026;2023-12-20T07:30:40;5.50;99.90
15288;DHT22;7745;48.708;9.026;2023-12-20T07:33:06;5.20;99.90
15288;DHT22;7745;48.708;9.026;2023-12-20T07:35:34;5.30;99.90
15288;DHT22;7745;48.708;9.026;2023-12-20T07:38:01;5.20;99.90
15288;DHT22;7745;48.708;9.026;2023-12-20T07:40:28;5.20;99.90
15288;DHT22;7745;48.708;9.026;2023-12-20T07:42:54;5.20;99.90
15288;DHT22;7745;48.708;9.026;2023-12-20T07:45:21;5.10;99.90
15288;DHT22;7745;48.708;9.026;2023-12-20T07:47:49;5.40;99.90
15288;DHT22;7745;48.708;9.026;2023-12-20T07:50:16;5.20;99.90
15288;DHT22;7745;48.708;9.026;2023-12-20T07:52:43;5.10;99.90
15288;DHT22;7745;48.708;9.026;2023-12-20T07:55:10;5.10;99.90
15288;DHT22;7745;48.708;9.026;2023-12-20T07:57:36;5.10;99.90
15288;DHT22;7745;48.708;9.026;2023-12-20T08:00:04;5.10;99.90
15288;DHT22;7745;48.708;9.026;2023-12-20T08:02:31;5.00;99.90
15288;DHT22;7745;48.708;9.026;2023-12-20T08:04:59;5.00;99.90
15288;DHT22;7745;48.708;9.026;2023-12-20T08:07:26;5.00;99.90
15288;DHT22;7745;48.708;9.026;2023-12-20T08:09:53;5.50;99.90
15288;DHT22;7745;48.708;9.026;2023-12-20T08:12:20;5.00;99.90
15288;DHT22;7745;48.708;9.026;2023-12-20T08:14:47;5.00;99.90
15288;DHT22;7745;48.708;9.026;2023-12-20T08:17:13;5.00;99.90
15288;DHT22;7745;48.708;9.026;2023-12-20T08:19:43;5.00;99.90
15288;DHT22;7745;48.708;9.026;2023-12-20T08:22:11;5.00;99.90
15288;DHT22;7745;48.708;9.026;2023-12-20T08:24:38;5.00;99.90
15288;DHT22;7745;48.708;9.026;2023-12-20T08:27:05;5.20;99.90
15288;DHT22;7745;48.708;9.026;2023-12-20T08:29:32;5.00;99.90
15288;DHT22;7745;48.708;9.026;2023-12-20T08:31:59;5.00;99.90
15288;DHT22;7745;48.708;9.026;2023-12-20T08:34:26;5.00;99.90
15288;DHT22;7745;48.708;9.026;2023-12-20T08:36:53;5.00;99.90
15288;DHT22;7745;48.708;9.026;2023-12-20T08:39:21;5.00;99.90
15288;DHT22;7745;48.708;9.026;2023-12-20T08:41:48;5.00;99.90
15288;DHT22;7745;48.708;9.026;2023-12-20T08:44:14;5.00;99.90
15288;DHT22;7745;48.708;9.026;2023-12-20T08:46:41;5.00;99.90
15288;DHT22;7745;48.708;9.026;2023-12-20T08:49:08;5.40;99.90
15288;DHT22;7745;48.708;9.026;2023-12-20T08:51:38;5.20;99.90
15288;DHT22;7745;48.708;9.026;2023-12-20T08:54:06;4.90;99.90
15288;DHT22;7745;48.708;9.026;2023-12-20T08:56:35;4.90;99.90
15288;DHT22;7745;48.708;9.026;2023-12-20T08:59:02;5.40;99.90
15288;DHT22;7745;48.708;9.026;2023-12-20T09:01:29;4.80;99.90
15288;DHT22;7745;48.708;9.026;2023-12-20T09:03:56;5.00;99.90
15288;DHT22;7745;48.708;9.026;2023-12-20T09:06:23;4.80;99.90
15288;DHT22;7745;48.708;9.026;2023-12-20T09:08:50;4.70;99.90
15288;DHT22;7745;48.708;9.026;2023-12-20T09:11:17;4.70;99.90
15288;DHT22;7745;48.708;9.026;2023-12-20T09:13:45;4.60;99.90
15288;DHT22;7745;48.708;9.026;2023-12-20T09:16:12;4.60;99.90
15288;DHT22;7745;48.708;9.026;2023-12-20T09:18:41;4.70;99.90
15288;DHT22;7745;48.708;9.026;2023-12-20T09:21:08;4.80;99.90
15288;DHT22;7745;48.708;9.026;2023-12-20T09:23:34;4.80;99.90
15288;DHT22;7745;48.708;9.026;2023-12-20T09:26:02;4.80;99.90
15288;DHT22;7745;48.708;9.026;2023-12-20T09:28:29;4.90;99.90
15288;DHT22;7745;48.708;9.026;2023-12-20T09:30:59;5.30;99.90
15288;DHT22;7745;48.708;9.026;2023-12-20T09:33:26;5.00;99.90
15288;DHT22;7745;48.708;9.026;2023-12-20T09:35:53;5.40;99.90
15288;DHT22;7745;48.708;9.026;2023-12-20T09:38:20;5.10;99.90
15288;DHT22;7745;48.708;9.026;2023-12-20T09:40:47;5.20;99.90
15288;DHT22;7745;48.708;9.026;2023-12-20T09:43:15;5.20;99.90
15288;DHT22;7745;48.708;9.026;2023-12-20T09:45:46;5.50;99.90
15288;DHT22;7745;48.708;9.026;2023-12-20T09:48:18;5.30;99.90
15288;DHT22;7745;48.708;9.026;2023-12-20T09:50:45;5.40;99.90
15288;DHT22;7745;48.708;9.026;2023-12-20T09:53:15;5.40;99.90
15288;DHT22;7745;48.708;9.026;2023-12-20T09:55:42;5.50;99.90
15288;DHT22;7745;48.708;9.026;2023-12-20T09:58:09;5.50;99.90
15288;DHT22;7745;48.708;9.026;2023-12-20T10:00:43;5.70;99.90
15288;DHT22;7745;48.708;9.026;2023-12-20T10:03:15;5.70;99.90
15288;DHT22;7745;48.708;9.026;2023-12-20T10:05:43;5.50;99.90
15288;DHT22;7745;48.708;9.026;2023-12-20T10:08:11;5.60;99.90
15288;DHT22;7745;48.708;9.026;2023-12-20T10:10:37;5.60;99.90
15288;DHT22;7745;48.708;9.026;2023-12-20T10:13:06;5.70;99.90
15288;DHT22;7745;48.708;9.026;2023-12-20T10:15:33;5.70;99.90
15288;DHT22;7745;48.708;9.026;2023-12-20T10:18:00;6.00;99.90
15288;DHT22;7745;48.708;9.026;2023-12-20T10:20:29;5.60;99.90
15288;DHT22;7745;48.708;9.026;2023-12-20T10:22:56;5.90;99.90
15288;DHT22;7745;48.708;9.026;2023-12-20T10:25:26;6.00;99.90
15288;DHT22;7745;48.708;9.026;2023-12-20T10:28:09;5.60;99.90
15288;DHT22;7745;48.708;9.026;2023-12-20T10:30:37;5.60;99.90
15288;DHT22;7745;48.708;9.026;2023-12-20T10:33:05;5.60;99.90
15288;DHT22;7745;48.708;9.026;2023-12-20T10:35:34;5.60;99.90
15288;DHT22;7745;48.708;9.026;2023-12-20T10:38:03;5.80;99.90
15288;DHT22;7745;48.708;9.026;2023-12-20T10:40:31;5.70;99.90
15288;DHT22;7745;48.708;9.026;2023-12-20T10:42:59;5.80;99.90
15288;DHT22;7745;48.708;9.026;2023-12-20T10:45:27;5.70;99.90
15288;DHT22;7745;48.708;9.026;2023-12-20T10:47:55;5.70;99.90
15288;DHT22;7745;48.708;9.026;2023-12-20T10:50:23;5.90;99.90
15288;DHT22;7745;48.708;9.026;2023-12-20T10:52:52;5.80;99.90
15288;DHT22;7745;48.708;9.026;2023-12-20T10:55:21;5.80;99.90
15288;DHT22;7745;48.708;9.026;2023-12-20T10:57:49;6.40;99.90
15288;DHT22;7745;48.708;9.026;2023-12-20T11:00:18;5.80;99.90
15288;DHT22;7745;48.708;9.026;2023-12-20T11:02:45;6.40;99.90
15288;DHT22;7745;48.708;9.026;2023-12-20T11:05:24;5.80;99.90
15288;DHT22;7745;48.708;9.026;2023-12-20T11:08:13;5.80;99.90
15288;DHT22;7745;48.708;9.026;2023-12-20T11:10:54;5.80;99.90
15288;DHT22;7745;48.708;9.026;2023-12-20T11:13:26;5.80;99.90
15288;DHT22;7745;48.708;9.026;2023-12-20T11:15:53;6.00;99.90
15288;DHT22;7745;48.708;9.026;2023-12-20T11:18:28;5.80;99.90
15288;DHT22;7745;48.708;9.026;2023-12-20T11:20:56;6.10;99.90
15288;DHT22;7745;48.708;9.026;2023-12-20T11:23:29;6.20;99.90
15288;DHT22;7745;48.708;9.026;2023-12-20T11:25:56;6.20;99.90
15288;DHT22;7745;48.708;9.026;2023-12-20T11:28:24;5.80;99.90
15288;DHT22;7745;48.708;9.026;2023-12-20T11:30:52;5.80;99.90
15288;DHT22;7745;48.708;9.026;2023-12-20T11:33:22;5.70;99.90
15288;DHT22;7745;48.708;9.026;2023-12-20T11:35:50;5.70;99.90
15288;DHT22;7745;48.708;9.026;2023-12-20T11:38:20;5.70;99.90
15288;DHT22;7745;48.708;9.026;2023-12-20T11:40:50;5.70;99.90
15288;DHT22;7745;48.708;9.026;2023-12-20T11:43:29;5.60;99.90
15288;DHT22;7745;48.708;9.026;2023-12-20T11:46:02;5.60;99.90
15288;DHT22;7745;48.708;9.026;2023-12-20T11:48:34;5.60;99.90
15288;DHT22;7745;48.708;9.026;2023-12-20T11:51:02;5.70;99.90
15288;DHT22;7745;48.708;9.026;2023-12-20T11:53:35;5.60;99.90
15288;DHT22;7745;48.708;9.026;2023-12-20T11:56:04;5.50;99.90
15288;DHT22;7745;48.708;9.026;2023-12-20T11:58:32;5.50;99.90
15288;DHT22;7745;48.708;9.026;2023-12-20T12:00:59;5.40;99.90
15288;DHT22;7745;48.708;9.026;2023-12-20T12:03:28;5.40;99.90
15288;DHT22;7745;48.708;9.026;2023-12-20T12:05:54;5.40;99.90
15288;DHT22;7745;48.708;9.026;2023-12-20T12:08:21;5.50;99.90
15288;DHT22;7745;48.708;9.026;2023-12-20T12:10:48;5.50;99.90
15288;DHT22;7745;48.708;9.026;2023-12-20T12:13:16;5.50;99.90
15288;DHT22;7745;48.708;9.026;2023-12-20T12:15:43;5.60;99.90
15288;DHT22;7745;48.708;9.026;2023-12-20T12:18:10;5.60;99.90
15288;DHT22;7745;48.708;9.026;2023-12-20T12:20:37;5.70;99.90
15288;DHT22;7745;48.708;9.026;2023-12-20T12:23:04;5.80;99.90
15288;DHT22;7745;48.708;9.026;2023-12-20T12:25:33;5.80;99.90
15288;DHT22;7745;48.708;9.026;2023-12-20T12:28:01;5.80;99.90
15288;DHT22;7745;48.708;9.026;2023-12-20T12:30:29;5.80;99.90
15288;DHT22;7745;48.708;9.026;2023-12-20T12:32:56;5.80;99.90
15288;DHT22;7745;48.708;9.026;2023-12-20T12:35:24;5.80;99.90
15288;DHT22;7745;48.708;9.026;2023-12-20T12:37:51;6.20;99.90
15288;DHT22;7745;48.708;9.026;2023-12-20T12:40:18;5.80;99.90
15288;DHT22;7745;48.708;9.026;2023-12-20T12:42:45;5.80;99.90
15288;DHT22;7745;48.708;9.026;2023-12-20T12:45:12;5.80;99.90
15288;DHT22;7745;48.708;9.026;2023-12-20T12:47:40;5.80;99.90
15288;DHT22;7745;48.708;9.026;2023-12-20T12:50:08;5.80;99.90
15288;DHT22;7745;48.708;9.026;2023-12-20T12:52:35;5.90;99.90
15288;DHT22;7745;48.708;9.026;2023-12-20T12:55:01;5.90;99.90
15288;DHT22;7745;48.708;9.026;2023-12-20T12:57:28;5.90;99.90
15288;DHT22;7745;48.708;9.026;2023-12-20T12:59:55;5.90;99.90
15288;DHT22;7745;48.708;9.026;2023-12-20T13:02:23;5.90;99.90
15288;DHT22;7745;48.708;9.026;2023-12-20T13:04:52;6.00;99.90
15288;DHT22;7745;48.708;9.026;2023-12-20T13:07:18;6.00;99.90
15288;DHT22;7745;48.708;9.026;2023-12-20T13:09:45;6.00;99.90
15288;DHT22;7745;48.708;9.026;2023-12-20T13:12:12;6.10;99.90
15288;DHT22;7745;48.708;9.026;2023-12-20T13:14:39;6.10;99.90
15288;DHT22;7745;48.708;9.026;2023-12-20T13:17:07;6.10;99.90
15288;DHT22;7745;48.708;9.026;2023-12-20T13:19:34;6.10;99.90
15288;DHT22;7745;48.708;9.026;2023-12-20T13:22:02;6.00;99.90
15288;DHT22;7745;48.708;9.026;2023-12-20T13:24:29;5.90;99.90
15288;DHT22;7745;48.708;9.026;2023-12-20T13:26:57;5.90;99.90
15288;DHT22;7745;48.708;9.026;2023-12-20T13:29:25;5.90;99.90
15288;DHT22;7745;48.708;9.026;2023-12-20T13:31:52;5.90;99.90
15288;DHT22;7745;48.708;9.026;2023-12-20T13:34:19;5.80;99.90
15288;DHT22;7745;48.708;9.026;2023-12-20T13:36:46;5.80;99.90
15288;DHT22;7745;48.708;9.026;2023-12-20T13:39:16;5.80;99.90
15288;DHT22;7745;48.708;9.026;2023-12-20T13:41:43;6.20;99.90
15288;DHT22;7745;48.708;9.026;2023-12-20T13:44:10;5.90;99.90
15288;DHT22;7745;48.708;9.026;2023-12-20T13:46:38;5.90;99.90
15288;DHT22;7745;48.708;9.026;2023-12-20T13:49:05;5.90;99.90
15288;DHT22;7745;48.708;9.026;2023-12-20T13:51:31;5.90;99.90
15288;DHT22;7745;48.708;9.026;2023-12-20T13:53:58;5.90;99.90
15288;DHT22;7745;48.708;9.026;2023-12-20T13:56:28;5.80;99.90
15288;DHT22;7745;48.708;9.026;2023-12-20T13:58:55;6.30;99.90
15288;DHT22;7745;48.708;9.026;2023-12-20T14:01:23;5.80;99.90
15288;DHT22;7745;48.708;9.026;2023-12-20T14:03:50;5.70;99.90
15288;DHT22;7745;48.708;9.026;2023-12-20T14:06:17;5.70;99.90
15288;DHT22;7745;48.708;9.026;2023-12-20T14:08:44;5.70;99.90
15288;DHT22;7745;48.708;9.026;2023-12-20T14:11:10;6.00;99.90
15288;DHT22;7745;48.708;9.026;2023-12-20T14:13:39;5.60;99.90
15288;DHT22;7745;48.708;9.026;2023-12-20T14:16:06;5.60;99.90
15288;DHT22;7745;48.708;9.026;2023-12-20T14:18:33;5.70;99.90
15288;DHT22;7745;48.708;9.026;2023-12-20T14:21:00;5.50;99.90
15288;DHT22;7745;48.708;9.026;2023-12-20T14:23:27;5.50;99.90
15288;DHT22;7745;48.708;9.026;2023-12-20T14:25:54;5.50;99.90
15288;DHT22;7745;48.708;9.026;2023-12-20T14:28:23;5.50;99.90
15288;DHT22;7745;48.708;9.026;2023-12-20T14:30:51;5.60;99.90
15288;DHT22;7745;48.708;9.026;2023-12-20T14:33:23;5.50;99.90
15288;DHT22;7745;48.708;9.026;2023-12-20T14:35:51;5.20;99.90
15288;DHT22;7745;48.708;9.026;2023-12-20T14:38:18;5.90;99.90
15288;DHT22;7745;48.708;9.026;2023-12-20T14:40:45;5.40;99.90
15288;DHT22;7745;48.708;9.026;2023-12-20T14:43:12;5.50;99.90
15288;DHT22;7745;48.708;9.026;2023-12-20T14:45:38;5.40;99.90
15288;DHT22;7745;48.708;9.026;2023-12-20T14:48:07;5.30;99.90
15288;DHT22;7745;48.708;9.026;2023-12-20T14:50:34;5.50;99.90
15288;DHT22;7745;48.708;9.026;2023-12-20T14:53:02;5.30;99.90
15288;DHT22;7745;48.708;9.026;2023-12-20T14:55:29;5.30;99.90
15288;DHT22;7745;48.708;9.026;2023-12-20T14:57:55;5.30;99.90
15288;DHT22;7745;48.708;9.026;2023-12-20T15:00:22;5.70;99.90
15288;DHT22;7745;48.708;9.026;2023-12-20T15:02:49;5.20;99.90
15288;DHT22;7745;48.708;9.026;2023-12-20T15:05:18;5.30;99.90
15288;DHT22;7745;48.708;9.026;2023-12-20T15:07:45;5.10;99.90
15288;DHT22;7745;48.708;9.026;2023-12-20T15:10:13;5.00;99.90
15288;DHT22;7745;48.708;9.026;2023-12-20T15:12:42;5.00;99.90
15288;DHT22;7745;48.708;9.026;2023-12-20T15:15:10;5.00;99.90
15288;DHT22;7745;48.708;9.026;2023-12-20T15:17:37;5.00;99.90
15288;DHT22;7745;48.708;9.026;2023-12-20T15:20:04;5.00;99.90
15288;DHT22;7745;48.708;9.026;2023-12-20T15:22:33;4.90;99.90
15288;DHT22;7745;48.708;9.026;2023-12-20T15:25:00;4.90;99.90
15288;DHT22;7745;48.708;9.026;2023-12-20T15:27:28;4.90;99.90
15288;DHT22;7745;48.708;9.026;2023-12-20T15:29:55;4.90;99.90
15288;DHT22;7745;48.708;9.026;2023-12-20T15:32:22;4.80;99.90
15288;DHT22;7745;48.708;9.026;2023-12-20T15:34:49;4.80;99.90
15288;DHT22;7745;48.708;9.026;2023-12-20T15:37:17;4.80;99.90
15288;DHT22;7745;48.708;9.026;2023-12-20T15:39:45;4.80;99.90
15288;DHT22;7745;48.708;9.026;2023-12-20T15:42:12;4.80;99.90
15288;DHT22;7745;48.708;9.026;2023-12-20T15:44:39;4.80;99.90
15288;DHT22;7745;48.708;9.026;2023-12-20T15:47:06;4.70;99.90
15288;DHT22;7745;48.708;9.026;2023-12-20T15:49:32;4.70;99.90
15288;DHT22;7745;48.708;9.026;2023-12-20T15:51:59;4.70;99.90
15288;DHT22;7745;48.708;9.026;2023-12-20T15:54:26;4.70;99.90
15288;DHT22;7745;48.708;9.026;2023-12-20T15:56:54;4.70;99.90
15288;DHT22;7745;48.708;9.026;2023-12-20T15:59:21;4.70;99.90
15288;DHT22;7745;48.708;9.026;2023-12-20T16:01:48;4.70;99.90
15288;DHT22;7745;48.708;9.026;2023-12-20T16:04:14;4.70;99.90